首页
METAR-TAF:

METAR-TAF

机场 :

旧金山, 加利福尼亚州, 美国

舊金山國際機場

纬度: 37-37-11N, 经度: 122-21-53W, 海拔: 3米

当前天气观测

该预报发布于1小时和7分钟前的22:56 UTC
风速4节,风向
温度 14°C
湿度 82%
气压 1022 hPa
能見度: 11.3公里
多云层高于15000英尺

METAR: KSFO 172256Z 09004KT 7SM BKN150 14/11 A3019 RMK AO2 SLP221 T01390111

时间: 16:03 (00:03 UTC)

预报

该预报发布于25分钟前的23:38 UTC
预报有效从18日的 00点(UTC)到 19日的 06点(UTC)
风速4节,风向
能見度: 10公里
多云层高于15000英尺
从 18日的 0400点(UTC)
风速4节,风向
能見度: 10公里
多云层高于1000英尺
从 18日的 0800点(UTC)
风速5节,风向南转南东
能見度: 10公里
阴天层高于2500英尺
从 18日的 1700点(UTC)
风速6节,风向西转西南
能見度: 10公里
阴天层高于2500英尺
小雨
从 18日的 2100点(UTC)
风速6节,风向西
能見度: 8.0公里
阴天层高于2000英尺
小雨
从 19日的 0300点(UTC)
风速8节,风向西
能見度: 10公里
多云层高于3000英尺
小阵雨

TAF: KSFO 172338Z 1800/1906 09004KT P6SM BKN150 FM180400 19004KT P6SM BKN010 FM180800 15005KT P6SM OVC025 FM181700 25006KT P6SM -RA OVC025 FM182100 27006KT 5SM -RA OVC020 FM190300 26008KT P6SM -SHRA BKN030

超过4000个机场的气象观测和天气预报(METAR&TAF报告)。

可查询的气象台以黄色和红色小点在地图上表示。

将鼠标移到小点上方,可查看气象台名称。

然后点击查看天气观测和预报。

如需切换地图:点击带黑十字的绿色按钮放大地图;点击带横线的绿色按钮缩小地图;或者点击绿色箭头查看邻近地区的地图。


METAR-TAF: